Centerdale, Iowa
Current Conditions -  °F | °C
As of 12:52 PM on Friday 21 Nov 2014 (Local Time) from KIOW Reporting Station
Clear Clear  
Wind Chill: 22°   Ceiling: Unl
Heat Index: 32°   Visibility: 10mi
Dew Point: 13°   Wind: 15mph
Humidity: 45%   Direction: 140°SE
Pressure: 30.3"   Gusts: NA
Location:  41.5542°N, 91.2913°W
Report Text: KIOW 211852Z AUTO 14013KT 10SM CLR 00/M11 A3030 RMK AO2 SLP273 T00001106
Loading
Personal Weather Stations






























Interactive Weather Map New forecast layout! Learn more

10-Day Weather Forecast

Advertisements
Track Severe Weather on mobile